sensor_id;sensor_type;location;lat;lon;timestamp;temperature;humidity
51619;DHT22;38518;53.164;5.430;2022-11-20T00:00:46;-0.30;99.90
51619;DHT22;38518;53.164;5.430;2022-11-20T00:03:12;-0.40;99.90
51619;DHT22;38518;53.164;5.430;2022-11-20T00:05:38;0.60;99.90
51619;DHT22;38518;53.164;5.430;2022-11-20T00:08:04;1.50;99.90
51619;DHT22;38518;53.164;5.430;2022-11-20T00:10:30;0.20;99.90
51619;DHT22;38518;53.164;5.430;2022-11-20T00:12:57;-0.20;99.90
51619;DHT22;38518;53.164;5.430;2022-11-20T00:15:23;0.80;99.90
51619;DHT22;38518;53.164;5.430;2022-11-20T00:17:49;-0.30;99.90
51619;DHT22;38518;53.164;5.430;2022-11-20T00:20:15;-0.30;99.90
51619;DHT22;38518;53.164;5.430;2022-11-20T00:22:41;0.20;99.90
51619;DHT22;38518;53.164;5.430;2022-11-20T00:25:07;0.10;99.90
51619;DHT22;38518;53.164;5.430;2022-11-20T00:27:33;0.00;99.90
51619;DHT22;38518;53.164;5.430;2022-11-20T00:29:58;0.80;99.90
51619;DHT22;38518;53.164;5.430;2022-11-20T00:32:24;0.70;99.90
51619;DHT22;38518;53.164;5.430;2022-11-20T00:34:49;0.60;99.90
51619;DHT22;38518;53.164;5.430;2022-11-20T00:37:15;-0.60;99.90
51619;DHT22;38518;53.164;5.430;2022-11-20T00:39:41;1.20;99.90
51619;DHT22;38518;53.164;5.430;2022-11-20T00:42:07;1.30;99.90
51619;DHT22;38518;53.164;5.430;2022-11-20T00:44:32;1.30;99.90
51619;DHT22;38518;53.164;5.430;2022-11-20T00:46:58;0.00;99.90
51619;DHT22;38518;53.164;5.430;2022-11-20T00:49:24;1.90;99.90
51619;DHT22;38518;53.164;5.430;2022-11-20T00:51:49;0.70;99.90
51619;DHT22;38518;53.164;5.430;2022-11-20T00:54:15;-0.50;99.90
51619;DHT22;38518;53.164;5.430;2022-11-20T00:56:41;1.10;99.90
51619;DHT22;38518;53.164;5.430;2022-11-20T00:59:09;-0.90;99.90
51619;DHT22;38518;53.164;5.430;2022-11-20T01:01:36;1.60;99.90
51619;DHT22;38518;53.164;5.430;2022-11-20T01:04:02;-0.60;99.90
51619;DHT22;38518;53.164;5.430;2022-11-20T01:06:30;-0.20;99.90
51619;DHT22;38518;53.164;5.430;2022-11-20T01:08:59;-0.20;99.90
51619;DHT22;38518;53.164;5.430;2022-11-20T01:11:27;1.10;99.90
51619;DHT22;38518;53.164;5.430;2022-11-20T01:13:54;-0.40;99.90
51619;DHT22;38518;53.164;5.430;2022-11-20T01:18:53;0.20;99.90
51619;DHT22;38518;53.164;5.430;2022-11-20T01:21:24;0.10;99.90
51619;DHT22;38518;53.164;5.430;2022-11-20T01:23:51;0.80;99.90
51619;DHT22;38518;53.164;5.430;2022-11-20T01:26:22;-0.70;99.90
51619;DHT22;38518;53.164;5.430;2022-11-20T01:28:49;0.60;99.90
51619;DHT22;38518;53.164;5.430;2022-11-20T01:31:21;1.20;99.90
51619;DHT22;38518;53.164;5.430;2022-11-20T01:33:49;1.00;99.90
51619;DHT22;38518;53.164;5.430;2022-11-20T01:36:16;0.50;99.90
51619;DHT22;38518;53.164;5.430;2022-11-20T01:38:42;0.30;99.90
51619;DHT22;38518;53.164;5.430;2022-11-20T01:41:10;-0.40;99.90
51619;DHT22;38518;53.164;5.430;2022-11-20T01:43:36;1.50;99.90
51619;DHT22;38518;53.164;5.430;2022-11-20T01:46:17;-0.40;99.90
51619;DHT22;38518;53.164;5.430;2022-11-20T01:51:50;-0.20;99.90
51619;DHT22;38518;53.164;5.430;2022-11-20T01:54:32;-0.20;99.90
51619;DHT22;38518;53.164;5.430;2022-11-20T01:57:00;0.60;99.90
51619;DHT22;38518;53.164;5.430;2022-11-20T01:59:28;0.90;99.90
51619;DHT22;38518;53.164;5.430;2022-11-20T02:01:55;1.00;99.90
51619;DHT22;38518;53.164;5.430;2022-11-20T02:04:21;-1.00;99.90
51619;DHT22;38518;53.164;5.430;2022-11-20T02:06:51;-0.60;99.90
51619;DHT22;38518;53.164;5.430;2022-11-20T02:09:19;-0.40;99.90
51619;DHT22;38518;53.164;5.430;2022-11-20T02:11:44;-1.10;99.90
51619;DHT22;38518;53.164;5.430;2022-11-20T02:14:10;-0.90;99.90
51619;DHT22;38518;53.164;5.430;2022-11-20T02:16:39;-1.30;99.90
51619;DHT22;38518;53.164;5.430;2022-11-20T02:19:08;-1.50;99.90
51619;DHT22;38518;53.164;5.430;2022-11-20T02:21:53;0.80;99.90
51619;DHT22;38518;53.164;5.430;2022-11-20T02:24:22;-1.20;99.90
51619;DHT22;38518;53.164;5.430;2022-11-20T02:27:04;-1.10;99.90
51619;DHT22;38518;53.164;5.430;2022-11-20T02:29:48;-0.80;99.90
51619;DHT22;38518;53.164;5.430;2022-11-20T02:32:20;-0.60;99.90
51619;DHT22;38518;53.164;5.430;2022-11-20T02:34:46;-1.50;99.90
51619;DHT22;38518;53.164;5.430;2022-11-20T02:37:12;-1.50;99.90
51619;DHT22;38518;53.164;5.430;2022-11-20T02:39:39;-0.60;99.90
51619;DHT22;38518;53.164;5.430;2022-11-20T02:42:05;0.50;99.90
51619;DHT22;38518;53.164;5.430;2022-11-20T02:44:31;-1.50;99.90
51619;DHT22;38518;53.164;5.430;2022-11-20T02:46:58;-1.40;99.90
51619;DHT22;38518;53.164;5.430;2022-11-20T02:49:24;-1.30;99.90
51619;DHT22;38518;53.164;5.430;2022-11-20T02:51:50;-1.40;99.90
51619;DHT22;38518;53.164;5.430;2022-11-20T02:54:16;0.40;99.90
51619;DHT22;38518;53.164;5.430;2022-11-20T02:56:42;-1.50;99.90
51619;DHT22;38518;53.164;5.430;2022-11-20T02:59:09;-1.50;99.90
51619;DHT22;38518;53.164;5.430;2022-11-20T03:01:35;-0.80;99.90
51619;DHT22;38518;53.164;5.430;2022-11-20T03:04:01;-1.60;99.90
51619;DHT22;38518;53.164;5.430;2022-11-20T03:06:27;-1.70;99.90
51619;DHT22;38518;53.164;5.430;2022-11-20T03:08:53;0.90;99.90
51619;DHT22;38518;53.164;5.430;2022-11-20T03:11:18;-1.50;99.90
51619;DHT22;38518;53.164;5.430;2022-11-20T03:13:44;0.00;99.90
51619;DHT22;38518;53.164;5.430;2022-11-20T03:16:15;-1.40;99.90
51619;DHT22;38518;53.164;5.430;2022-11-20T03:18:42;-1.10;99.90
51619;DHT22;38518;53.164;5.430;2022-11-20T03:21:08;0.80;99.90
51619;DHT22;38518;53.164;5.430;2022-11-20T03:23:34;-1.70;99.90
51619;DHT22;38518;53.164;5.430;2022-11-20T03:26:18;0.30;99.90
51619;DHT22;38518;53.164;5.430;2022-11-20T03:28:49;-1.10;99.90
51619;DHT22;38518;53.164;5.430;2022-11-20T03:31:16;-1.30;99.90
51619;DHT22;38518;53.164;5.430;2022-11-20T03:33:43;-1.00;99.90
51619;DHT22;38518;53.164;5.430;2022-11-20T03:36:11;-1.40;99.90
51619;DHT22;38518;53.164;5.430;2022-11-20T03:38:37;0.30;99.90
51619;DHT22;38518;53.164;5.430;2022-11-20T03:41:12;-1.40;99.90
51619;DHT22;38518;53.164;5.430;2022-11-20T03:43:39;-1.00;99.90
51619;DHT22;38518;53.164;5.430;2022-11-20T03:46:05;-0.20;99.90
51619;DHT22;38518;53.164;5.430;2022-11-20T03:48:31;0.30;99.90
51619;DHT22;38518;53.164;5.430;2022-11-20T03:51:19;-1.40;99.90
51619;DHT22;38518;53.164;5.430;2022-11-20T03:53:47;-1.00;1.00
51619;DHT22;38518;53.164;5.430;2022-11-20T03:56:16;-1.20;1.00
51619;DHT22;38518;53.164;5.430;2022-11-20T03:58:42;-1.30;1.00
51619;DHT22;38518;53.164;5.430;2022-11-20T04:01:11;-0.30;1.00
51619;DHT22;38518;53.164;5.430;2022-11-20T04:03:39;-1.40;1.00
51619;DHT22;38518;53.164;5.430;2022-11-20T04:06:14;-1.00;99.90
51619;DHT22;38518;53.164;5.430;2022-11-20T04:08:40;-1.10;99.90
51619;DHT22;38518;53.164;5.430;2022-11-20T04:11:21;0.80;99.90
51619;DHT22;38518;53.164;5.430;2022-11-20T04:13:58;-1.00;99.90
51619;DHT22;38518;53.164;5.430;2022-11-20T04:16:25;-1.40;99.90
51619;DHT22;38518;53.164;5.430;2022-11-20T04:18:56;-0.30;99.90
51619;DHT22;38518;53.164;5.430;2022-11-20T04:21:23;-1.10;99.90
51619;DHT22;38518;53.164;5.430;2022-11-20T04:23:50;-0.40;99.90
51619;DHT22;38518;53.164;5.430;2022-11-20T04:26:16;-1.60;99.90
51619;DHT22;38518;53.164;5.430;2022-11-20T04:28:42;0.20;99.90
51619;DHT22;38518;53.164;5.430;2022-11-20T04:31:11;-1.90;99.90
51619;DHT22;38518;53.164;5.430;2022-11-20T04:33:38;-1.70;99.90
51619;DHT22;38518;53.164;5.430;2022-11-20T04:36:24;-1.80;1.00
51619;DHT22;38518;53.164;5.430;2022-11-20T04:38:54;-0.70;1.00
51619;DHT22;38518;53.164;5.430;2022-11-20T04:41:21;-1.50;1.00
51619;DHT22;38518;53.164;5.430;2022-11-20T04:43:49;0.20;1.00
51619;DHT22;38518;53.164;5.430;2022-11-20T04:46:16;0.00;1.00
51619;DHT22;38518;53.164;5.430;2022-11-20T04:48:41;-1.70;1.00
51619;DHT22;38518;53.164;5.430;2022-11-20T04:51:07;-1.80;99.90
51619;DHT22;38518;53.164;5.430;2022-11-20T04:53:33;-1.80;99.90
51619;DHT22;38518;53.164;5.430;2022-11-20T04:56:00;0.20;99.90
51619;DHT22;38518;53.164;5.430;2022-11-20T04:58:26;-2.00;99.90
51619;DHT22;38518;53.164;5.430;2022-11-20T05:00:51;-0.50;99.90
51619;DHT22;38518;53.164;5.430;2022-11-20T05:03:17;-2.10;99.90
51619;DHT22;38518;53.164;5.430;2022-11-20T05:05:43;-1.20;99.90
51619;DHT22;38518;53.164;5.430;2022-11-20T05:08:08;-2.30;99.90
51619;DHT22;38518;53.164;5.430;2022-11-20T05:10:34;-2.10;99.90
51619;DHT22;38518;53.164;5.430;2022-11-20T05:13:00;-2.00;99.90
51619;DHT22;38518;53.164;5.430;2022-11-20T05:15:25;-2.10;99.90
51619;DHT22;38518;53.164;5.430;2022-11-20T05:17:52;-2.40;1.00
51619;DHT22;38518;53.164;5.430;2022-11-20T05:20:18;-1.40;1.00
51619;DHT22;38518;53.164;5.430;2022-11-20T05:22:44;-2.10;1.00
51619;DHT22;38518;53.164;5.430;2022-11-20T05:25:11;-2.50;1.00
51619;DHT22;38518;53.164;5.430;2022-11-20T05:27:37;-2.50;1.00
51619;DHT22;38518;53.164;5.430;2022-11-20T05:30:04;-0.80;1.00
51619;DHT22;38518;53.164;5.430;2022-11-20T05:32:30;-1.90;1.00
51619;DHT22;38518;53.164;5.430;2022-11-20T05:34:55;-2.10;1.00
51619;DHT22;38518;53.164;5.430;2022-11-20T05:37:21;-1.90;1.00
51619;DHT22;38518;53.164;5.430;2022-11-20T05:39:47;-0.90;1.00
51619;DHT22;38518;53.164;5.430;2022-11-20T05:42:12;-0.70;1.00
51619;DHT22;38518;53.164;5.430;2022-11-20T05:45:01;-1.10;1.00
51619;DHT22;38518;53.164;5.430;2022-11-20T05:47:28;-2.10;1.00
51619;DHT22;38518;53.164;5.430;2022-11-20T05:49:54;-2.20;1.00
51619;DHT22;38518;53.164;5.430;2022-11-20T05:52:20;0.00;1.00
51619;DHT22;38518;53.164;5.430;2022-11-20T05:54:45;-2.40;1.00
51619;DHT22;38518;53.164;5.430;2022-11-20T05:57:11;0.00;1.00
51619;DHT22;38518;53.164;5.430;2022-11-20T05:59:37;-1.30;1.00
51619;DHT22;38518;53.164;5.430;2022-11-20T06:02:03;-1.70;1.00
51619;DHT22;38518;53.164;5.430;2022-11-20T06:04:28;-2.30;1.00
51619;DHT22;38518;53.164;5.430;2022-11-20T06:06:54;-2.00;1.00
51619;DHT22;38518;53.164;5.430;2022-11-20T06:09:20;0.10;1.00
51619;DHT22;38518;53.164;5.430;2022-11-20T06:11:45;-1.60;1.00
51619;DHT22;38518;53.164;5.430;2022-11-20T06:14:11;-1.90;1.00
51619;DHT22;38518;53.164;5.430;2022-11-20T06:16:37;0.10;1.00
51619;DHT22;38518;53.164;5.430;2022-11-20T06:19:02;-1.90;1.00
51619;DHT22;38518;53.164;5.430;2022-11-20T06:21:28;0.10;1.00
51619;DHT22;38518;53.164;5.430;2022-11-20T06:23:54;0.10;1.00
51619;DHT22;38518;53.164;5.430;2022-11-20T06:26:21;-1.50;1.00
51619;DHT22;38518;53.164;5.430;2022-11-20T06:28:48;-1.90;1.00
51619;DHT22;38518;53.164;5.430;2022-11-20T06:31:15;-2.00;1.00
51619;DHT22;38518;53.164;5.430;2022-11-20T06:33:42;-0.70;1.00
51619;DHT22;38518;53.164;5.430;2022-11-20T06:36:09;-2.00;1.00
51619;DHT22;38518;53.164;5.430;2022-11-20T06:38:35;-0.40;1.00
51619;DHT22;38518;53.164;5.430;2022-11-20T06:41:03;-1.90;1.00
51619;DHT22;38518;53.164;5.430;2022-11-20T06:43:29;-1.30;1.00
51619;DHT22;38518;53.164;5.430;2022-11-20T06:45:56;-2.10;1.00
51619;DHT22;38518;53.164;5.430;2022-11-20T06:48:23;-2.30;1.00
51619;DHT22;38518;53.164;5.430;2022-11-20T06:50:49;-2.00;1.00
51619;DHT22;38518;53.164;5.430;2022-11-20T06:53:15;0.50;1.00
51619;DHT22;38518;53.164;5.430;2022-11-20T06:55:45;0.10;1.00
51619;DHT22;38518;53.164;5.430;2022-11-20T06:58:12;-0.60;1.00
51619;DHT22;38518;53.164;5.430;2022-11-20T07:00:39;-1.50;1.00
51619;DHT22;38518;53.164;5.430;2022-11-20T07:03:09;-1.00;1.00
51619;DHT22;38518;53.164;5.430;2022-11-20T07:05:36;-2.00;1.00
51619;DHT22;38518;53.164;5.430;2022-11-20T07:08:03;-1.80;1.00
51619;DHT22;38518;53.164;5.430;2022-11-20T07:10:28;-1.40;1.00
51619;DHT22;38518;53.164;5.430;2022-11-20T07:12:55;-1.80;1.00
51619;DHT22;38518;53.164;5.430;2022-11-20T07:15:22;-0.40;1.00
51619;DHT22;38518;53.164;5.430;2022-11-20T07:17:48;0.60;1.00
51619;DHT22;38518;53.164;5.430;2022-11-20T07:20:14;-2.10;1.00
51619;DHT22;38518;53.164;5.430;2022-11-20T07:22:41;-1.30;1.00
51619;DHT22;38518;53.164;5.430;2022-11-20T07:25:07;-1.70;1.00
51619;DHT22;38518;53.164;5.430;2022-11-20T07:27:33;-1.30;1.00
51619;DHT22;38518;53.164;5.430;2022-11-20T07:30:00;-1.60;1.00
51619;DHT22;38518;53.164;5.430;2022-11-20T07:32:25;-1.70;1.00
51619;DHT22;38518;53.164;5.430;2022-11-20T07:34:51;-1.10;1.00
51619;DHT22;38518;53.164;5.430;2022-11-20T07:37:17;-0.40;1.00
51619;DHT22;38518;53.164;5.430;2022-11-20T07:39:43;-0.60;1.00
51619;DHT22;38518;53.164;5.430;2022-11-20T07:42:09;-1.40;1.00
51619;DHT22;38518;53.164;5.430;2022-11-20T07:44:35;-0.50;1.00
51619;DHT22;38518;53.164;5.430;2022-11-20T07:47:01;-1.40;1.00
51619;DHT22;38518;53.164;5.430;2022-11-20T07:49:27;-1.10;1.00
51619;DHT22;38518;53.164;5.430;2022-11-20T07:51:53;-0.20;1.00
51619;DHT22;38518;53.164;5.430;2022-11-20T07:54:20;-1.30;1.00
51619;DHT22;38518;53.164;5.430;2022-11-20T07:56:46;0.30;1.00
51619;DHT22;38518;53.164;5.430;2022-11-20T07:59:12;-1.50;1.00
51619;DHT22;38518;53.164;5.430;2022-11-20T08:01:41;-1.20;1.00
51619;DHT22;38518;53.164;5.430;2022-11-20T08:04:06;-1.10;1.00
51619;DHT22;38518;53.164;5.430;2022-11-20T08:06:32;-1.00;1.00
51619;DHT22;38518;53.164;5.430;2022-11-20T08:08:58;-0.90;1.00
51619;DHT22;38518;53.164;5.430;2022-11-20T08:11:24;-0.50;1.00
51619;DHT22;38518;53.164;5.430;2022-11-20T08:14:08;0.90;1.00
51619;DHT22;38518;53.164;5.430;2022-11-20T08:16:41;0.10;1.00
51619;DHT22;38518;53.164;5.430;2022-11-20T08:19:07;1.20;1.00
51619;DHT22;38518;53.164;5.430;2022-11-20T08:21:32;-0.10;1.00
51619;DHT22;38518;53.164;5.430;2022-11-20T08:23:59;0.60;1.00
51619;DHT22;38518;53.164;5.430;2022-11-20T08:26:25;-0.20;1.00
51619;DHT22;38518;53.164;5.430;2022-11-20T08:28:58;2.70;1.00
51619;DHT22;38518;53.164;5.430;2022-11-20T08:31:25;0.80;1.00
51619;DHT22;38518;53.164;5.430;2022-11-20T08:33:52;1.00;1.00
51619;DHT22;38518;53.164;5.430;2022-11-20T08:36:18;1.40;1.00
51619;DHT22;38518;53.164;5.430;2022-11-20T08:38:52;1.60;1.00
51619;DHT22;38518;53.164;5.430;2022-11-20T08:41:18;2.30;1.00
51619;DHT22;38518;53.164;5.430;2022-11-20T08:43:51;2.30;1.00
51619;DHT22;38518;53.164;5.430;2022-11-20T08:46:18;2.60;99.90
51619;DHT22;38518;53.164;5.430;2022-11-20T08:48:44;1.60;99.90
51619;DHT22;38518;53.164;5.430;2022-11-20T08:51:11;2.00;99.90
51619;DHT22;38518;53.164;5.430;2022-11-20T08:53:38;1.00;99.90
51619;DHT22;38518;53.164;5.430;2022-11-20T08:56:04;3.10;99.90
51619;DHT22;38518;53.164;5.430;2022-11-20T08:58:29;1.60;99.90
51619;DHT22;38518;53.164;5.430;2022-11-20T09:00:55;1.10;99.90
51619;DHT22;38518;53.164;5.430;2022-11-20T09:03:21;2.40;99.90
51619;DHT22;38518;53.164;5.430;2022-11-20T09:05:47;1.90;99.90
51619;DHT22;38518;53.164;5.430;2022-11-20T09:08:13;1.80;99.90
51619;DHT22;38518;53.164;5.430;2022-11-20T09:10:38;1.90;99.90
51619;DHT22;38518;53.164;5.430;2022-11-20T09:13:07;2.80;99.90
51619;DHT22;38518;53.164;5.430;2022-11-20T09:15:33;2.10;99.90
51619;DHT22;38518;53.164;5.430;2022-11-20T09:18:01;2.10;99.90
51619;DHT22;38518;53.164;5.430;2022-11-20T09:20:28;2.90;99.90
51619;DHT22;38518;53.164;5.430;2022-11-20T09:22:56;2.90;1.00
51619;DHT22;38518;53.164;5.430;2022-11-20T09:25:22;4.10;99.90
51619;DHT22;38518;53.164;5.430;2022-11-20T09:27:47;4.30;99.90
51619;DHT22;38518;53.164;5.430;2022-11-20T09:30:14;5.40;99.90
51619;DHT22;38518;53.164;5.430;2022-11-20T09:32:41;4.70;99.90
51619;DHT22;38518;53.164;5.430;2022-11-20T09:35:07;5.30;99.90
51619;DHT22;38518;53.164;5.430;2022-11-20T09:37:33;5.60;99.90
51619;DHT22;38518;53.164;5.430;2022-11-20T09:39:59;6.20;99.90
51619;DHT22;38518;53.164;5.430;2022-11-20T09:45:30;6.60;98.90
51619;DHT22;38518;53.164;5.430;2022-11-20T09:51:00;6.60;80.80
51619;DHT22;38518;53.164;5.430;2022-11-20T09:56:14;5.30;60.90
51619;DHT22;38518;53.164;5.430;2022-11-20T09:58:45;5.00;77.00
51619;DHT22;38518;53.164;5.430;2022-11-20T10:01:15;5.80;95.00
51619;DHT22;38518;53.164;5.430;2022-11-20T10:04:03;4.50;97.20
51619;DHT22;38518;53.164;5.430;2022-11-20T10:06:43;4.40;97.20
51619;DHT22;38518;53.164;5.430;2022-11-20T10:17:32;3.80;99.90
51619;DHT22;38518;53.164;5.430;2022-11-20T10:20:02;5.20;99.90
51619;DHT22;38518;53.164;5.430;2022-11-20T10:31:04;4.30;99.90
51619;DHT22;38518;53.164;5.430;2022-11-20T10:33:36;4.40;99.90
51619;DHT22;38518;53.164;5.430;2022-11-20T10:38:45;4.70;99.90
51619;DHT22;38518;53.164;5.430;2022-11-20T10:41:26;5.00;99.90
51619;DHT22;38518;53.164;5.430;2022-11-20T10:46:24;5.50;80.00
51619;DHT22;38518;53.164;5.430;2022-11-20T10:48:50;5.60;75.80
51619;DHT22;38518;53.164;5.430;2022-11-20T10:54:17;6.00;46.80
51619;DHT22;38518;53.164;5.430;2022-11-20T10:56:52;6.40;29.10
51619;DHT22;38518;53.164;5.430;2022-11-20T11:01:52;7.00;35.60
51619;DHT22;38518;53.164;5.430;2022-11-20T11:04:36;8.70;47.70
51619;DHT22;38518;53.164;5.430;2022-11-20T11:07:12;7.70;38.00
51619;DHT22;38518;53.164;5.430;2022-11-20T11:09:42;8.40;43.20
51619;DHT22;38518;53.164;5.430;2022-11-20T11:12:09;9.10;21.40
51619;DHT22;38518;53.164;5.430;2022-11-20T11:15:02;9.60;7.30
51619;DHT22;38518;53.164;5.430;2022-11-20T11:17:33;9.70;1.00
51619;DHT22;38518;53.164;5.430;2022-11-20T11:22:30;10.20;1.00
51619;DHT22;38518;53.164;5.430;2022-11-20T11:24:56;11.10;1.00
51619;DHT22;38518;53.164;5.430;2022-11-20T11:27:22;10.50;1.00
51619;DHT22;38518;53.164;5.430;2022-11-20T11:29:48;11.20;1.00
51619;DHT22;38518;53.164;5.430;2022-11-20T11:32:23;10.30;1.00
51619;DHT22;38518;53.164;5.430;2022-11-20T11:35:03;9.10;1.00
51619;DHT22;38518;53.164;5.430;2022-11-20T11:37:34;8.10;1.00
51619;DHT22;38518;53.164;5.430;2022-11-20T11:40:03;7.40;1.00
51619;DHT22;38518;53.164;5.430;2022-11-20T11:42:29;6.80;1.00
51619;DHT22;38518;53.164;5.430;2022-11-20T11:44:58;6.50;1.00
51619;DHT22;38518;53.164;5.430;2022-11-20T11:47:35;5.90;1.00
51619;DHT22;38518;53.164;5.430;2022-11-20T11:50:20;6.10;5.60
51619;DHT22;38518;53.164;5.430;2022-11-20T11:55:57;5.10;5.80
51619;DHT22;38518;53.164;5.430;2022-11-20T12:04:33;4.90;30.70
51619;DHT22;38518;53.164;5.430;2022-11-20T12:07:07;4.80;92.50
51619;DHT22;38518;53.164;5.430;2022-11-20T12:09:43;5.70;93.80
51619;DHT22;38518;53.164;5.430;2022-11-20T12:12:19;4.70;95.20
51619;DHT22;38518;53.164;5.430;2022-11-20T12:14:47;2.90;94.30
51619;DHT22;38518;53.164;5.430;2022-11-20T12:17:16;4.70;54.80
51619;DHT22;38518;53.164;5.430;2022-11-20T12:19:43;4.40;5.30
51619;DHT22;38518;53.164;5.430;2022-11-20T12:25:28;3.70;10.80
51619;DHT22;38518;53.164;5.430;2022-11-20T12:28:26;4.80;15.30
51619;DHT22;38518;53.164;5.430;2022-11-20T12:34:02;4.30;9.20
51619;DHT22;38518;53.164;5.430;2022-11-20T12:36:43;4.30;1.00
51619;DHT22;38518;53.164;5.430;2022-11-20T12:39:35;4.50;1.00
51619;DHT22;38518;53.164;5.430;2022-11-20T12:45:46;4.60;1.00
51619;DHT22;38518;53.164;5.430;2022-11-20T12:51:10;3.90;18.40
51619;DHT22;38518;53.164;5.430;2022-11-20T13:01:25;3.40;8.80
51619;DHT22;38518;53.164;5.430;2022-11-20T13:04:21;3.40;78.10
51619;DHT22;38518;53.164;5.430;2022-11-20T13:06:50;3.30;93.00
51619;DHT22;38518;53.164;5.430;2022-11-20T13:09:19;3.40;99.90
51619;DHT22;38518;53.164;5.430;2022-11-20T13:12:08;3.50;93.30
51619;DHT22;38518;53.164;5.430;2022-11-20T13:14:43;3.90;22.40
51619;DHT22;38518;53.164;5.430;2022-11-20T13:17:45;3.50;18.80
51619;DHT22;38518;53.164;5.430;2022-11-20T13:20:14;4.70;16.30
51619;DHT22;38518;53.164;5.430;2022-11-20T13:22:49;3.10;19.60
51619;DHT22;38518;53.164;5.430;2022-11-20T13:25:29;3.00;19.50
51619;DHT22;38518;53.164;5.430;2022-11-20T13:27:57;3.30;23.10
51619;DHT22;38518;53.164;5.430;2022-11-20T13:30:27;3.20;30.20
51619;DHT22;38518;53.164;5.430;2022-11-20T13:33:08;3.20;35.10
51619;DHT22;38518;53.164;5.430;2022-11-20T13:35:41;3.00;46.90
51619;DHT22;38518;53.164;5.430;2022-11-20T13:38:13;4.50;24.70
51619;DHT22;38518;53.164;5.430;2022-11-20T13:41:00;3.10;36.40
51619;DHT22;38518;53.164;5.430;2022-11-20T13:43:49;2.80;44.30
51619;DHT22;38518;53.164;5.430;2022-11-20T13:46:15;3.10;45.50
51619;DHT22;38518;53.164;5.430;2022-11-20T13:48:47;3.10;47.70
51619;DHT22;38518;53.164;5.430;2022-11-20T13:51:34;2.90;47.00
51619;DHT22;38518;53.164;5.430;2022-11-20T13:54:42;3.00;41.30
51619;DHT22;38518;53.164;5.430;2022-11-20T14:00:21;2.90;44.20
51619;DHT22;38518;53.164;5.430;2022-11-20T14:05:36;3.30;61.10
51619;DHT22;38518;53.164;5.430;2022-11-20T14:08:05;2.30;67.30
51619;DHT22;38518;53.164;5.430;2022-11-20T14:10:32;2.80;76.30
51619;DHT22;38518;53.164;5.430;2022-11-20T14:12:58;3.20;66.00
51619;DHT22;38518;53.164;5.430;2022-11-20T14:15:32;3.00;66.90
51619;DHT22;38518;53.164;5.430;2022-11-20T14:17:59;3.20;60.50
51619;DHT22;38518;53.164;5.430;2022-11-20T14:20:29;3.80;71.10
51619;DHT22;38518;53.164;5.430;2022-11-20T14:22:56;2.60;66.30
51619;DHT22;38518;53.164;5.430;2022-11-20T14:25:24;3.60;67.80
51619;DHT22;38518;53.164;5.430;2022-11-20T14:27:57;4.50;62.40
51619;DHT22;38518;53.164;5.430;2022-11-20T14:30:26;2.80;65.50
51619;DHT22;38518;53.164;5.430;2022-11-20T14:32:56;2.50;66.60
51619;DHT22;38518;53.164;5.430;2022-11-20T14:35:28;4.20;65.60
51619;DHT22;38518;53.164;5.430;2022-11-20T14:37:55;3.30;64.90
51619;DHT22;38518;53.164;5.430;2022-11-20T14:40:35;2.80;61.40
51619;DHT22;38518;53.164;5.430;2022-11-20T14:45:43;2.50;52.70
51619;DHT22;38518;53.164;5.430;2022-11-20T14:48:10;3.20;51.10
51619;DHT22;38518;53.164;5.430;2022-11-20T14:50:38;2.20;51.60
51619;DHT22;38518;53.164;5.430;2022-11-20T14:53:04;2.20;53.50
51619;DHT22;38518;53.164;5.430;2022-11-20T14:55:36;2.60;59.30
51619;DHT22;38518;53.164;5.430;2022-11-20T14:58:23;2.30;58.90
51619;DHT22;38518;53.164;5.430;2022-11-20T15:01:04;3.20;61.40
51619;DHT22;38518;53.164;5.430;2022-11-20T15:03:38;2.20;66.70
51619;DHT22;38518;53.164;5.430;2022-11-20T15:06:06;2.30;77.60
51619;DHT22;38518;53.164;5.430;2022-11-20T15:08:34;3.00;80.80
51619;DHT22;38518;53.164;5.430;2022-11-20T15:11:00;1.70;73.90
51619;DHT22;38518;53.164;5.430;2022-11-20T15:13:37;3.60;79.70
51619;DHT22;38518;53.164;5.430;2022-11-20T15:16:08;2.30;86.10
51619;DHT22;38518;53.164;5.430;2022-11-20T15:18:38;3.30;91.30
51619;DHT22;38518;53.164;5.430;2022-11-20T15:21:10;1.60;91.50
51619;DHT22;38518;53.164;5.430;2022-11-20T15:23:36;3.40;79.70
51619;DHT22;38518;53.164;5.430;2022-11-20T15:26:03;3.20;82.10
51619;DHT22;38518;53.164;5.430;2022-11-20T15:28:39;2.50;81.20
51619;DHT22;38518;53.164;5.430;2022-11-20T15:31:05;2.70;80.90
51619;DHT22;38518;53.164;5.430;2022-11-20T15:33:32;2.70;82.90
51619;DHT22;38518;53.164;5.430;2022-11-20T15:35:59;1.90;91.40
51619;DHT22;38518;53.164;5.430;2022-11-20T15:38:25;3.40;95.10
51619;DHT22;38518;53.164;5.430;2022-11-20T15:40:51;2.70;97.30
51619;DHT22;38518;53.164;5.430;2022-11-20T15:43:17;2.20;99.90
51619;DHT22;38518;53.164;5.430;2022-11-20T15:45:45;2.90;98.10
51619;DHT22;38518;53.164;5.430;2022-11-20T15:48:15;4.00;96.80
51619;DHT22;38518;53.164;5.430;2022-11-20T15:50:56;2.60;99.60
51619;DHT22;38518;53.164;5.430;2022-11-20T15:53:23;2.00;98.30
51619;DHT22;38518;53.164;5.430;2022-11-20T15:55:49;3.30;99.90
51619;DHT22;38518;53.164;5.430;2022-11-20T15:58:14;2.10;99.90
51619;DHT22;38518;53.164;5.430;2022-11-20T16:00:42;2.10;99.90
51619;DHT22;38518;53.164;5.430;2022-11-20T16:03:12;1.90;99.90
51619;DHT22;38518;53.164;5.430;2022-11-20T16:05:38;2.50;99.90
51619;DHT22;38518;53.164;5.430;2022-11-20T16:08:04;1.90;99.90
51619;DHT22;38518;53.164;5.430;2022-11-20T16:10:30;1.90;99.90
51619;DHT22;38518;53.164;5.430;2022-11-20T16:12:56;1.90;99.90
51619;DHT22;38518;53.164;5.430;2022-11-20T16:15:40;2.50;99.90
51619;DHT22;38518;53.164;5.430;2022-11-20T16:18:14;2.00;99.90
51619;DHT22;38518;53.164;5.430;2022-11-20T16:20:40;3.30;99.90
51619;DHT22;38518;53.164;5.430;2022-11-20T16:23:06;2.70;99.90
51619;DHT22;38518;53.164;5.430;2022-11-20T16:25:32;2.60;99.90
51619;DHT22;38518;53.164;5.430;2022-11-20T16:27:58;3.10;99.90
51619;DHT22;38518;53.164;5.430;2022-11-20T16:30:24;2.00;99.90
51619;DHT22;38518;53.164;5.430;2022-11-20T16:32:50;2.70;99.90
51619;DHT22;38518;53.164;5.430;2022-11-20T16:35:16;1.20;99.90
51619;DHT22;38518;53.164;5.430;2022-11-20T16:37:42;1.10;99.90
51619;DHT22;38518;53.164;5.430;2022-11-20T16:40:10;2.00;99.90
51619;DHT22;38518;53.164;5.430;2022-11-20T16:42:36;1.80;99.90
51619;DHT22;38518;53.164;5.430;2022-11-20T16:45:03;3.30;99.90
51619;DHT22;38518;53.164;5.430;2022-11-20T16:47:36;1.70;99.90
51619;DHT22;38518;53.164;5.430;2022-11-20T16:50:02;3.50;99.90
51619;DHT22;38518;53.164;5.430;2022-11-20T16:52:29;1.80;99.90
51619;DHT22;38518;53.164;5.430;2022-11-20T16:54:56;1.40;99.90
51619;DHT22;38518;53.164;5.430;2022-11-20T16:57:21;3.00;99.90
51619;DHT22;38518;53.164;5.430;2022-11-20T16:59:48;1.90;99.90
51619;DHT22;38518;53.164;5.430;2022-11-20T17:02:14;2.40;99.90
51619;DHT22;38518;53.164;5.430;2022-11-20T17:04:40;2.80;99.90
51619;DHT22;38518;53.164;5.430;2022-11-20T17:07:06;3.40;99.90
51619;DHT22;38518;53.164;5.430;2022-11-20T17:09:33;1.70;99.90
51619;DHT22;38518;53.164;5.430;2022-11-20T17:11:59;2.60;99.90
51619;DHT22;38518;53.164;5.430;2022-11-20T17:14:24;1.60;99.90
51619;DHT22;38518;53.164;5.430;2022-11-20T17:16:50;2.40;99.90
51619;DHT22;38518;53.164;5.430;2022-11-20T17:19:16;2.00;99.90